sensor_id;sensor_type;location;lat;lon;timestamp;temperature;humidity
11035;DHT22;5571;48.110;-1.706;2023-06-22T00:00:49;20.20;99.90
11035;DHT22;5571;48.110;-1.706;2023-06-22T00:03:17;20.20;99.90
11035;DHT22;5571;48.110;-1.706;2023-06-22T00:05:42;20.20;99.90
11035;DHT22;5571;48.110;-1.706;2023-06-22T00:08:08;20.20;99.90
11035;DHT22;5571;48.110;-1.706;2023-06-22T00:10:34;20.20;99.90
11035;DHT22;5571;48.110;-1.706;2023-06-22T00:13:00;20.10;99.90
11035;DHT22;5571;48.110;-1.706;2023-06-22T00:15:26;20.20;99.90
11035;DHT22;5571;48.110;-1.706;2023-06-22T00:17:52;20.20;99.90
11035;DHT22;5571;48.110;-1.706;2023-06-22T00:20:17;20.30;99.90
11035;DHT22;5571;48.110;-1.706;2023-06-22T00:22:44;20.20;99.90
11035;DHT22;5571;48.110;-1.706;2023-06-22T00:25:10;20.20;99.90
11035;DHT22;5571;48.110;-1.706;2023-06-22T00:27:36;20.20;99.90
11035;DHT22;5571;48.110;-1.706;2023-06-22T00:30:03;20.30;99.90
11035;DHT22;5571;48.110;-1.706;2023-06-22T00:32:28;20.30;99.90
11035;DHT22;5571;48.110;-1.706;2023-06-22T00:34:54;20.20;99.90
11035;DHT22;5571;48.110;-1.706;2023-06-22T00:37:20;20.10;99.90
11035;DHT22;5571;48.110;-1.706;2023-06-22T00:39:48;20.00;99.90
11035;DHT22;5571;48.110;-1.706;2023-06-22T00:42:14;19.90;99.90
11035;DHT22;5571;48.110;-1.706;2023-06-22T00:44:39;19.80;99.90
11035;DHT22;5571;48.110;-1.706;2023-06-22T00:47:06;19.80;99.90
11035;DHT22;5571;48.110;-1.706;2023-06-22T00:49:32;19.80;99.90
11035;DHT22;5571;48.110;-1.706;2023-06-22T00:51:58;19.80;99.90
11035;DHT22;5571;48.110;-1.706;2023-06-22T00:54:24;19.80;99.90
11035;DHT22;5571;48.110;-1.706;2023-06-22T00:56:54;19.70;99.90
11035;DHT22;5571;48.110;-1.706;2023-06-22T00:59:22;19.70;99.90
11035;DHT22;5571;48.110;-1.706;2023-06-22T01:01:48;19.80;99.90
11035;DHT22;5571;48.110;-1.706;2023-06-22T01:04:14;19.80;99.90
11035;DHT22;5571;48.110;-1.706;2023-06-22T01:06:47;19.80;99.90
11035;DHT22;5571;48.110;-1.706;2023-06-22T01:09:24;19.80;99.90
11035;DHT22;5571;48.110;-1.706;2023-06-22T01:11:58;19.80;99.90
11035;DHT22;5571;48.110;-1.706;2023-06-22T01:17:00;19.90;99.90
11035;DHT22;5571;48.110;-1.706;2023-06-22T01:19:49;19.80;99.90
11035;DHT22;5571;48.110;-1.706;2023-06-22T01:22:18;19.80;99.90
11035;DHT22;5571;48.110;-1.706;2023-06-22T01:25:07;19.80;99.90
11035;DHT22;5571;48.110;-1.706;2023-06-22T01:30:07;19.70;99.90
11035;DHT22;5571;48.110;-1.706;2023-06-22T01:32:37;19.80;99.90
11035;DHT22;5571;48.110;-1.706;2023-06-22T01:35:05;19.70;99.90
11035;DHT22;5571;48.110;-1.706;2023-06-22T01:37:36;19.70;99.90
11035;DHT22;5571;48.110;-1.706;2023-06-22T01:40:02;19.70;99.90
11035;DHT22;5571;48.110;-1.706;2023-06-22T01:42:31;19.80;99.90
11035;DHT22;5571;48.110;-1.706;2023-06-22T01:44:58;19.70;99.90
11035;DHT22;5571;48.110;-1.706;2023-06-22T01:47:25;19.80;99.90
11035;DHT22;5571;48.110;-1.706;2023-06-22T01:49:51;19.80;99.90
11035;DHT22;5571;48.110;-1.706;2023-06-22T01:52:18;19.80;99.90
11035;DHT22;5571;48.110;-1.706;2023-06-22T01:54:43;19.80;99.90
11035;DHT22;5571;48.110;-1.706;2023-06-22T01:57:09;19.80;99.90
11035;DHT22;5571;48.110;-1.706;2023-06-22T02:00:14;19.90;99.90
11035;DHT22;5571;48.110;-1.706;2023-06-22T02:05:52;19.90;99.90
11035;DHT22;5571;48.110;-1.706;2023-06-22T02:08:25;19.90;99.90
11035;DHT22;5571;48.110;-1.706;2023-06-22T02:10:54;20.00;99.90
11035;DHT22;5571;48.110;-1.706;2023-06-22T02:13:21;19.90;99.90
11035;DHT22;5571;48.110;-1.706;2023-06-22T02:15:47;19.90;99.90
11035;DHT22;5571;48.110;-1.706;2023-06-22T02:18:13;19.90;99.90
11035;DHT22;5571;48.110;-1.706;2023-06-22T02:20:40;19.90;99.90
11035;DHT22;5571;48.110;-1.706;2023-06-22T02:23:06;19.90;99.90
11035;DHT22;5571;48.110;-1.706;2023-06-22T02:25:33;19.90;99.90
11035;DHT22;5571;48.110;-1.706;2023-06-22T02:27:58;19.90;99.90
11035;DHT22;5571;48.110;-1.706;2023-06-22T02:30:24;20.00;99.90
11035;DHT22;5571;48.110;-1.706;2023-06-22T02:32:50;20.00;99.90
11035;DHT22;5571;48.110;-1.706;2023-06-22T02:35:30;20.00;99.90
11035;DHT22;5571;48.110;-1.706;2023-06-22T02:38:01;20.00;99.90
11035;DHT22;5571;48.110;-1.706;2023-06-22T02:40:28;19.80;99.90
11035;DHT22;5571;48.110;-1.706;2023-06-22T02:42:57;19.80;99.90
11035;DHT22;5571;48.110;-1.706;2023-06-22T02:45:27;19.80;99.90
11035;DHT22;5571;48.110;-1.706;2023-06-22T02:47:53;19.80;99.90
11035;DHT22;5571;48.110;-1.706;2023-06-22T02:50:19;19.80;99.90
11035;DHT22;5571;48.110;-1.706;2023-06-22T02:52:44;19.80;99.90
11035;DHT22;5571;48.110;-1.706;2023-06-22T02:55:10;19.90;99.90
11035;DHT22;5571;48.110;-1.706;2023-06-22T02:57:36;19.90;99.90
11035;DHT22;5571;48.110;-1.706;2023-06-22T03:00:03;19.90;99.90
11035;DHT22;5571;48.110;-1.706;2023-06-22T03:02:47;19.90;99.90
11035;DHT22;5571;48.110;-1.706;2023-06-22T03:05:14;19.90;99.90
11035;DHT22;5571;48.110;-1.706;2023-06-22T03:07:43;19.90;99.90
11035;DHT22;5571;48.110;-1.706;2023-06-22T03:10:10;19.80;99.90
11035;DHT22;5571;48.110;-1.706;2023-06-22T03:12:37;19.80;99.90
11035;DHT22;5571;48.110;-1.706;2023-06-22T03:15:10;19.80;99.90
11035;DHT22;5571;48.110;-1.706;2023-06-22T03:17:37;19.80;99.90
11035;DHT22;5571;48.110;-1.706;2023-06-22T03:20:04;19.80;99.90
11035;DHT22;5571;48.110;-1.706;2023-06-22T03:22:41;19.70;99.90
11035;DHT22;5571;48.110;-1.706;2023-06-22T03:25:09;19.70;99.90
11035;DHT22;5571;48.110;-1.706;2023-06-22T03:27:43;19.70;99.90
11035;DHT22;5571;48.110;-1.706;2023-06-22T03:30:11;19.70;99.90
11035;DHT22;5571;48.110;-1.706;2023-06-22T03:32:37;19.60;99.90
11035;DHT22;5571;48.110;-1.706;2023-06-22T03:35:02;19.60;99.90
11035;DHT22;5571;48.110;-1.706;2023-06-22T03:37:28;19.60;99.90
11035;DHT22;5571;48.110;-1.706;2023-06-22T03:39:54;19.50;99.90
11035;DHT22;5571;48.110;-1.706;2023-06-22T03:42:20;19.40;99.90
11035;DHT22;5571;48.110;-1.706;2023-06-22T03:44:46;19.40;99.90
11035;DHT22;5571;48.110;-1.706;2023-06-22T03:47:12;19.40;99.90
11035;DHT22;5571;48.110;-1.706;2023-06-22T03:49:38;19.30;99.90
11035;DHT22;5571;48.110;-1.706;2023-06-22T03:52:04;19.30;99.90
11035;DHT22;5571;48.110;-1.706;2023-06-22T03:54:31;19.30;99.90
11035;DHT22;5571;48.110;-1.706;2023-06-22T03:56:57;19.30;99.90
11035;DHT22;5571;48.110;-1.706;2023-06-22T03:59:24;19.20;99.90
11035;DHT22;5571;48.110;-1.706;2023-06-22T04:01:49;19.20;99.90
11035;DHT22;5571;48.110;-1.706;2023-06-22T04:04:16;19.20;99.90
11035;DHT22;5571;48.110;-1.706;2023-06-22T04:06:42;19.20;99.90
11035;DHT22;5571;48.110;-1.706;2023-06-22T04:09:08;19.20;99.90
11035;DHT22;5571;48.110;-1.706;2023-06-22T04:11:33;19.20;99.90
11035;DHT22;5571;48.110;-1.706;2023-06-22T04:13:59;19.20;99.90
11035;DHT22;5571;48.110;-1.706;2023-06-22T04:16:25;19.30;99.90
11035;DHT22;5571;48.110;-1.706;2023-06-22T04:18:51;19.30;99.90
11035;DHT22;5571;48.110;-1.706;2023-06-22T04:21:16;19.30;99.90
11035;DHT22;5571;48.110;-1.706;2023-06-22T04:23:42;19.30;99.90
11035;DHT22;5571;48.110;-1.706;2023-06-22T04:26:08;19.30;99.90
11035;DHT22;5571;48.110;-1.706;2023-06-22T04:28:34;19.30;99.90
11035;DHT22;5571;48.110;-1.706;2023-06-22T04:31:03;19.20;99.90
11035;DHT22;5571;48.110;-1.706;2023-06-22T04:33:30;19.30;99.90
11035;DHT22;5571;48.110;-1.706;2023-06-22T04:35:55;19.30;99.90
11035;DHT22;5571;48.110;-1.706;2023-06-22T04:38:26;19.20;99.90
11035;DHT22;5571;48.110;-1.706;2023-06-22T04:40:52;19.20;99.90
11035;DHT22;5571;48.110;-1.706;2023-06-22T04:43:19;19.20;99.90
11035;DHT22;5571;48.110;-1.706;2023-06-22T04:45:44;19.20;99.90
11035;DHT22;5571;48.110;-1.706;2023-06-22T04:48:10;19.20;99.90
11035;DHT22;5571;48.110;-1.706;2023-06-22T04:50:42;19.20;99.90
11035;DHT22;5571;48.110;-1.706;2023-06-22T04:53:08;19.20;99.90
11035;DHT22;5571;48.110;-1.706;2023-06-22T04:55:35;19.30;99.90
11035;DHT22;5571;48.110;-1.706;2023-06-22T04:58:03;19.30;99.90
11035;DHT22;5571;48.110;-1.706;2023-06-22T05:00:30;19.30;99.90
11035;DHT22;5571;48.110;-1.706;2023-06-22T05:02:56;19.30;99.90
11035;DHT22;5571;48.110;-1.706;2023-06-22T05:05:23;19.20;99.90
11035;DHT22;5571;48.110;-1.706;2023-06-22T05:07:50;19.20;99.90
11035;DHT22;5571;48.110;-1.706;2023-06-22T05:10:19;19.30;99.90
11035;DHT22;5571;48.110;-1.706;2023-06-22T05:12:46;19.20;99.90
11035;DHT22;5571;48.110;-1.706;2023-06-22T05:15:12;19.20;99.90
11035;DHT22;5571;48.110;-1.706;2023-06-22T05:17:38;19.20;99.90
11035;DHT22;5571;48.110;-1.706;2023-06-22T05:20:10;19.30;99.90
11035;DHT22;5571;48.110;-1.706;2023-06-22T05:22:36;19.30;99.90
11035;DHT22;5571;48.110;-1.706;2023-06-22T05:25:01;19.30;99.90
11035;DHT22;5571;48.110;-1.706;2023-06-22T05:27:27;19.30;99.90
11035;DHT22;5571;48.110;-1.706;2023-06-22T05:29:53;19.40;99.90
11035;DHT22;5571;48.110;-1.706;2023-06-22T05:32:18;19.40;99.90
11035;DHT22;5571;48.110;-1.706;2023-06-22T05:34:44;19.50;99.90
11035;DHT22;5571;48.110;-1.706;2023-06-22T05:37:10;19.50;99.90
11035;DHT22;5571;48.110;-1.706;2023-06-22T05:39:36;19.60;99.90
11035;DHT22;5571;48.110;-1.706;2023-06-22T05:42:05;19.60;99.90
11035;DHT22;5571;48.110;-1.706;2023-06-22T05:44:32;19.70;99.90
11035;DHT22;5571;48.110;-1.706;2023-06-22T05:46:59;19.80;99.90
11035;DHT22;5571;48.110;-1.706;2023-06-22T05:49:24;19.80;99.90
11035;DHT22;5571;48.110;-1.706;2023-06-22T05:51:55;19.80;99.90
11035;DHT22;5571;48.110;-1.706;2023-06-22T05:54:21;19.80;99.90
11035;DHT22;5571;48.110;-1.706;2023-06-22T05:56:46;19.90;99.90
11035;DHT22;5571;48.110;-1.706;2023-06-22T05:59:12;19.90;99.90
11035;DHT22;5571;48.110;-1.706;2023-06-22T06:01:37;19.90;99.90
11035;DHT22;5571;48.110;-1.706;2023-06-22T06:04:05;19.90;99.90
11035;DHT22;5571;48.110;-1.706;2023-06-22T06:06:33;20.00;99.90
11035;DHT22;5571;48.110;-1.706;2023-06-22T06:09:03;20.00;99.90
11035;DHT22;5571;48.110;-1.706;2023-06-22T06:11:29;20.00;99.90
11035;DHT22;5571;48.110;-1.706;2023-06-22T06:13:55;20.10;99.90
11035;DHT22;5571;48.110;-1.706;2023-06-22T06:16:22;20.00;99.90
11035;DHT22;5571;48.110;-1.706;2023-06-22T06:18:47;20.10;99.90
11035;DHT22;5571;48.110;-1.706;2023-06-22T06:21:15;20.20;99.90
11035;DHT22;5571;48.110;-1.706;2023-06-22T06:23:40;20.30;99.90
11035;DHT22;5571;48.110;-1.706;2023-06-22T06:26:06;20.30;99.90
11035;DHT22;5571;48.110;-1.706;2023-06-22T06:28:32;20.40;99.90
11035;DHT22;5571;48.110;-1.706;2023-06-22T06:30:58;20.40;99.90
11035;DHT22;5571;48.110;-1.706;2023-06-22T06:33:24;20.50;99.90
11035;DHT22;5571;48.110;-1.706;2023-06-22T06:35:50;20.60;99.90
11035;DHT22;5571;48.110;-1.706;2023-06-22T06:38:16;20.60;99.90
11035;DHT22;5571;48.110;-1.706;2023-06-22T06:40:41;20.70;99.90
11035;DHT22;5571;48.110;-1.706;2023-06-22T06:43:07;20.70;99.90
11035;DHT22;5571;48.110;-1.706;2023-06-22T06:45:32;20.80;99.90
11035;DHT22;5571;48.110;-1.706;2023-06-22T06:48:00;20.80;99.90
11035;DHT22;5571;48.110;-1.706;2023-06-22T06:50:25;20.90;99.90
11035;DHT22;5571;48.110;-1.706;2023-06-22T06:52:51;20.90;99.90
11035;DHT22;5571;48.110;-1.706;2023-06-22T06:55:17;20.90;99.90
11035;DHT22;5571;48.110;-1.706;2023-06-22T06:57:43;21.00;99.90
11035;DHT22;5571;48.110;-1.706;2023-06-22T07:00:12;21.00;99.90
11035;DHT22;5571;48.110;-1.706;2023-06-22T07:02:48;21.10;99.90
11035;DHT22;5571;48.110;-1.706;2023-06-22T07:05:14;21.20;99.90
11035;DHT22;5571;48.110;-1.706;2023-06-22T07:07:40;21.20;99.90
11035;DHT22;5571;48.110;-1.706;2023-06-22T07:10:07;21.20;99.90
11035;DHT22;5571;48.110;-1.706;2023-06-22T07:12:33;21.40;99.90
11035;DHT22;5571;48.110;-1.706;2023-06-22T07:15:07;21.40;99.90
11035;DHT22;5571;48.110;-1.706;2023-06-22T07:17:37;21.30;99.90
11035;DHT22;5571;48.110;-1.706;2023-06-22T07:20:03;21.40;99.90
11035;DHT22;5571;48.110;-1.706;2023-06-22T07:22:34;21.50;99.90
11035;DHT22;5571;48.110;-1.706;2023-06-22T07:24:59;21.50;99.90
11035;DHT22;5571;48.110;-1.706;2023-06-22T07:27:26;21.50;99.90
11035;DHT22;5571;48.110;-1.706;2023-06-22T07:29:51;21.60;99.90
11035;DHT22;5571;48.110;-1.706;2023-06-22T07:32:17;21.70;99.90
11035;DHT22;5571;48.110;-1.706;2023-06-22T07:34:42;21.80;99.90
11035;DHT22;5571;48.110;-1.706;2023-06-22T07:37:09;21.90;99.90
11035;DHT22;5571;48.110;-1.706;2023-06-22T07:39:34;22.00;99.90
11035;DHT22;5571;48.110;-1.706;2023-06-22T07:42:00;22.10;99.90
11035;DHT22;5571;48.110;-1.706;2023-06-22T07:44:26;22.10;99.90
11035;DHT22;5571;48.110;-1.706;2023-06-22T07:46:51;22.10;99.90
11035;DHT22;5571;48.110;-1.706;2023-06-22T07:49:17;22.10;99.90
11035;DHT22;5571;48.110;-1.706;2023-06-22T07:51:43;22.00;99.90
11035;DHT22;5571;48.110;-1.706;2023-06-22T07:54:09;21.90;99.90
11035;DHT22;5571;48.110;-1.706;2023-06-22T07:56:36;21.90;99.90
11035;DHT22;5571;48.110;-1.706;2023-06-22T07:59:02;21.90;99.90
11035;DHT22;5571;48.110;-1.706;2023-06-22T08:01:29;22.10;99.90
11035;DHT22;5571;48.110;-1.706;2023-06-22T08:03:54;22.30;99.90
11035;DHT22;5571;48.110;-1.706;2023-06-22T08:06:20;22.40;99.90
11035;DHT22;5571;48.110;-1.706;2023-06-22T08:08:46;22.40;99.90
11035;DHT22;5571;48.110;-1.706;2023-06-22T08:11:13;22.40;99.90
11035;DHT22;5571;48.110;-1.706;2023-06-22T08:13:39;22.30;99.90
11035;DHT22;5571;48.110;-1.706;2023-06-22T08:16:05;22.30;99.90
11035;DHT22;5571;48.110;-1.706;2023-06-22T08:18:30;22.40;99.90
11035;DHT22;5571;48.110;-1.706;2023-06-22T08:20:56;22.30;99.90
11035;DHT22;5571;48.110;-1.706;2023-06-22T08:23:22;22.20;99.90
11035;DHT22;5571;48.110;-1.706;2023-06-22T08:25:47;22.30;99.90
11035;DHT22;5571;48.110;-1.706;2023-06-22T08:28:15;22.40;99.90
11035;DHT22;5571;48.110;-1.706;2023-06-22T08:30:41;22.50;99.90
11035;DHT22;5571;48.110;-1.706;2023-06-22T08:33:06;22.50;99.90
11035;DHT22;5571;48.110;-1.706;2023-06-22T08:35:32;22.60;99.90
11035;DHT22;5571;48.110;-1.706;2023-06-22T08:37:58;22.70;99.90
11035;DHT22;5571;48.110;-1.706;2023-06-22T08:40:24;22.90;99.90
11035;DHT22;5571;48.110;-1.706;2023-06-22T08:42:50;23.00;99.90
11035;DHT22;5571;48.110;-1.706;2023-06-22T08:45:16;23.00;99.90
11035;DHT22;5571;48.110;-1.706;2023-06-22T08:47:42;23.10;99.90
11035;DHT22;5571;48.110;-1.706;2023-06-22T08:50:11;23.40;99.90
11035;DHT22;5571;48.110;-1.706;2023-06-22T08:52:38;23.40;99.90
11035;DHT22;5571;48.110;-1.706;2023-06-22T08:55:07;23.50;99.90
11035;DHT22;5571;48.110;-1.706;2023-06-22T08:57:33;23.40;99.90
11035;DHT22;5571;48.110;-1.706;2023-06-22T08:59:58;23.40;99.90
11035;DHT22;5571;48.110;-1.706;2023-06-22T09:02:27;23.30;99.90
11035;DHT22;5571;48.110;-1.706;2023-06-22T09:05:02;23.20;99.90
11035;DHT22;5571;48.110;-1.706;2023-06-22T09:07:28;23.10;99.90
11035;DHT22;5571;48.110;-1.706;2023-06-22T09:09:55;23.10;99.90
11035;DHT22;5571;48.110;-1.706;2023-06-22T09:12:20;23.20;99.90
11035;DHT22;5571;48.110;-1.706;2023-06-22T09:14:51;23.50;99.90
11035;DHT22;5571;48.110;-1.706;2023-06-22T09:17:16;23.60;99.90
11035;DHT22;5571;48.110;-1.706;2023-06-22T09:19:42;23.60;99.90
11035;DHT22;5571;48.110;-1.706;2023-06-22T09:22:08;23.70;99.90
11035;DHT22;5571;48.110;-1.706;2023-06-22T09:24:33;23.50;99.90
11035;DHT22;5571;48.110;-1.706;2023-06-22T09:26:59;23.60;99.90
11035;DHT22;5571;48.110;-1.706;2023-06-22T09:29:25;23.70;99.90
11035;DHT22;5571;48.110;-1.706;2023-06-22T09:31:50;23.70;99.90
11035;DHT22;5571;48.110;-1.706;2023-06-22T09:34:19;23.90;99.90
11035;DHT22;5571;48.110;-1.706;2023-06-22T09:36:46;24.00;99.90
11035;DHT22;5571;48.110;-1.706;2023-06-22T09:39:12;24.20;99.90
11035;DHT22;5571;48.110;-1.706;2023-06-22T09:41:37;24.40;99.90
11035;DHT22;5571;48.110;-1.706;2023-06-22T09:44:03;24.50;99.90
11035;DHT22;5571;48.110;-1.706;2023-06-22T09:46:29;24.50;99.90
11035;DHT22;5571;48.110;-1.706;2023-06-22T09:48:54;24.50;99.90
11035;DHT22;5571;48.110;-1.706;2023-06-22T09:51:20;24.40;99.90
11035;DHT22;5571;48.110;-1.706;2023-06-22T09:53:47;24.50;99.90
11035;DHT22;5571;48.110;-1.706;2023-06-22T09:56:14;24.60;99.90
11035;DHT22;5571;48.110;-1.706;2023-06-22T09:58:44;24.60;99.90
11035;DHT22;5571;48.110;-1.706;2023-06-22T10:01:10;24.90;99.90
11035;DHT22;5571;48.110;-1.706;2023-06-22T10:03:36;24.90;99.90
11035;DHT22;5571;48.110;-1.706;2023-06-22T10:06:02;24.90;99.90
11035;DHT22;5571;48.110;-1.706;2023-06-22T10:08:28;25.00;99.90
11035;DHT22;5571;48.110;-1.706;2023-06-22T10:10:54;25.10;99.90
11035;DHT22;5571;48.110;-1.706;2023-06-22T10:13:20;25.20;99.90
11035;DHT22;5571;48.110;-1.706;2023-06-22T10:15:45;25.10;99.90
11035;DHT22;5571;48.110;-1.706;2023-06-22T10:18:15;25.30;99.90
11035;DHT22;5571;48.110;-1.706;2023-06-22T10:20:42;25.20;99.90
11035;DHT22;5571;48.110;-1.706;2023-06-22T10:23:07;25.40;99.90
11035;DHT22;5571;48.110;-1.706;2023-06-22T10:25:33;25.30;99.90
11035;DHT22;5571;48.110;-1.706;2023-06-22T10:27:58;25.30;99.90
11035;DHT22;5571;48.110;-1.706;2023-06-22T10:30:24;25.30;99.90
11035;DHT22;5571;48.110;-1.706;2023-06-22T10:32:50;25.40;99.90
11035;DHT22;5571;48.110;-1.706;2023-06-22T10:35:15;25.30;99.90
11035;DHT22;5571;48.110;-1.706;2023-06-22T10:37:45;25.20;99.90
11035;DHT22;5571;48.110;-1.706;2023-06-22T10:40:14;25.30;99.90
11035;DHT22;5571;48.110;-1.706;2023-06-22T10:42:41;25.30;99.90
11035;DHT22;5571;48.110;-1.706;2023-06-22T10:45:07;25.40;99.90
11035;DHT22;5571;48.110;-1.706;2023-06-22T10:47:34;25.50;99.90
11035;DHT22;5571;48.110;-1.706;2023-06-22T10:49:59;25.60;99.90
11035;DHT22;5571;48.110;-1.706;2023-06-22T10:52:25;25.60;99.90
11035;DHT22;5571;48.110;-1.706;2023-06-22T10:54:51;25.70;99.90
11035;DHT22;5571;48.110;-1.706;2023-06-22T10:57:17;25.70;99.90
11035;DHT22;5571;48.110;-1.706;2023-06-22T10:59:43;25.70;99.90
11035;DHT22;5571;48.110;-1.706;2023-06-22T11:02:09;25.90;99.90
11035;DHT22;5571;48.110;-1.706;2023-06-22T11:04:34;26.00;99.90
11035;DHT22;5571;48.110;-1.706;2023-06-22T11:07:00;26.10;99.90
11035;DHT22;5571;48.110;-1.706;2023-06-22T11:09:26;25.90;99.90
11035;DHT22;5571;48.110;-1.706;2023-06-22T11:11:52;26.20;99.90
11035;DHT22;5571;48.110;-1.706;2023-06-22T11:14:21;26.30;99.90
11035;DHT22;5571;48.110;-1.706;2023-06-22T11:16:47;26.40;99.90
11035;DHT22;5571;48.110;-1.706;2023-06-22T11:19:13;26.40;99.90
11035;DHT22;5571;48.110;-1.706;2023-06-22T11:21:39;26.40;99.90
11035;DHT22;5571;48.110;-1.706;2023-06-22T11:24:05;26.50;99.90
11035;DHT22;5571;48.110;-1.706;2023-06-22T11:26:30;26.60;99.90
11035;DHT22;5571;48.110;-1.706;2023-06-22T11:28:57;26.70;99.90
11035;DHT22;5571;48.110;-1.706;2023-06-22T11:31:23;26.70;99.90
11035;DHT22;5571;48.110;-1.706;2023-06-22T11:33:49;26.60;99.90
11035;DHT22;5571;48.110;-1.706;2023-06-22T11:36:15;26.80;99.90
11035;DHT22;5571;48.110;-1.706;2023-06-22T11:38:41;26.90;99.90
11035;DHT22;5571;48.110;-1.706;2023-06-22T11:41:08;27.00;99.90
11035;DHT22;5571;48.110;-1.706;2023-06-22T11:43:34;27.10;99.90
11035;DHT22;5571;48.110;-1.706;2023-06-22T11:46:01;27.10;99.90
11035;DHT22;5571;48.110;-1.706;2023-06-22T11:48:27;27.00;99.90
11035;DHT22;5571;48.110;-1.706;2023-06-22T11:50:53;26.70;99.90
11035;DHT22;5571;48.110;-1.706;2023-06-22T11:53:21;27.00;99.90
11035;DHT22;5571;48.110;-1.706;2023-06-22T11:55:47;27.00;99.90
11035;DHT22;5571;48.110;-1.706;2023-06-22T11:58:13;27.00;99.90
11035;DHT22;5571;48.110;-1.706;2023-06-22T12:00:38;27.20;99.90
11035;DHT22;5571;48.110;-1.706;2023-06-22T12:03:04;27.20;99.90
11035;DHT22;5571;48.110;-1.706;2023-06-22T12:05:29;27.10;99.90
11035;DHT22;5571;48.110;-1.706;2023-06-22T12:07:55;26.90;99.90
11035;DHT22;5571;48.110;-1.706;2023-06-22T12:10:22;26.50;99.90
11035;DHT22;5571;48.110;-1.706;2023-06-22T12:12:48;26.50;99.90
11035;DHT22;5571;48.110;-1.706;2023-06-22T12:15:14;26.60;99.90
11035;DHT22;5571;48.110;-1.706;2023-06-22T12:17:40;26.90;99.90
11035;DHT22;5571;48.110;-1.706;2023-06-22T12:20:06;27.00;99.90
11035;DHT22;5571;48.110;-1.706;2023-06-22T12:22:33;27.20;99.90
11035;DHT22;5571;48.110;-1.706;2023-06-22T12:24:59;27.20;99.90
11035;DHT22;5571;48.110;-1.706;2023-06-22T12:27:25;27.20;99.90
11035;DHT22;5571;48.110;-1.706;2023-06-22T12:29:51;27.40;99.90
11035;DHT22;5571;48.110;-1.706;2023-06-22T12:32:17;27.40;99.90
11035;DHT22;5571;48.110;-1.706;2023-06-22T12:34:43;27.50;99.90
11035;DHT22;5571;48.110;-1.706;2023-06-22T12:37:09;27.60;99.90
11035;DHT22;5571;48.110;-1.706;2023-06-22T12:39:35;27.90;99.90
11035;DHT22;5571;48.110;-1.706;2023-06-22T12:42:01;27.80;99.90
11035;DHT22;5571;48.110;-1.706;2023-06-22T12:44:26;27.70;99.90
11035;DHT22;5571;48.110;-1.706;2023-06-22T12:46:52;27.50;99.90
11035;DHT22;5571;48.110;-1.706;2023-06-22T12:49:18;27.60;99.90
11035;DHT22;5571;48.110;-1.706;2023-06-22T12:51:44;27.70;99.90
11035;DHT22;5571;48.110;-1.706;2023-06-22T12:54:11;28.00;99.90
11035;DHT22;5571;48.110;-1.706;2023-06-22T12:56:37;28.30;99.90
11035;DHT22;5571;48.110;-1.706;2023-06-22T12:59:06;28.30;99.90
11035;DHT22;5571;48.110;-1.706;2023-06-22T13:01:32;28.20;99.90
11035;DHT22;5571;48.110;-1.706;2023-06-22T13:04:00;28.20;99.90
11035;DHT22;5571;48.110;-1.706;2023-06-22T13:06:26;28.10;99.90
11035;DHT22;5571;48.110;-1.706;2023-06-22T13:08:51;27.80;99.90
11035;DHT22;5571;48.110;-1.706;2023-06-22T13:11:17;28.00;99.90
11035;DHT22;5571;48.110;-1.706;2023-06-22T13:13:45;28.20;99.90
11035;DHT22;5571;48.110;-1.706;2023-06-22T13:16:11;27.90;99.90
11035;DHT22;5571;48.110;-1.706;2023-06-22T13:18:37;28.10;99.90
11035;DHT22;5571;48.110;-1.706;2023-06-22T13:21:03;28.10;99.90
11035;DHT22;5571;48.110;-1.706;2023-06-22T13:23:29;28.30;99.90
11035;DHT22;5571;48.110;-1.706;2023-06-22T13:25:54;28.60;99.90
11035;DHT22;5571;48.110;-1.706;2023-06-22T13:28:20;28.80;99.90
11035;DHT22;5571;48.110;-1.706;2023-06-22T13:30:46;28.80;99.90
11035;DHT22;5571;48.110;-1.706;2023-06-22T13:33:13;28.50;99.90
11035;DHT22;5571;48.110;-1.706;2023-06-22T13:35:39;28.70;99.90
11035;DHT22;5571;48.110;-1.706;2023-06-22T13:38:05;28.40;99.90
11035;DHT22;5571;48.110;-1.706;2023-06-22T13:40:30;28.50;99.90
11035;DHT22;5571;48.110;-1.706;2023-06-22T13:42:57;28.60;99.90
11035;DHT22;5571;48.110;-1.706;2023-06-22T13:45:22;28.90;99.90
11035;DHT22;5571;48.110;-1.706;2023-06-22T13:47:48;28.90;99.90
11035;DHT22;5571;48.110;-1.706;2023-06-22T13:50:14;29.10;99.90
11035;DHT22;5571;48.110;-1.706;2023-06-22T13:52:40;29.30;99.90
11035;DHT22;5571;48.110;-1.706;2023-06-22T13:55:05;29.00;99.90
11035;DHT22;5571;48.110;-1.706;2023-06-22T13:57:32;28.90;99.90
11035;DHT22;5571;48.110;-1.706;2023-06-22T13:59:59;29.00;99.90
11035;DHT22;5571;48.110;-1.706;2023-06-22T14:02:26;28.70;99.90
11035;DHT22;5571;48.110;-1.706;2023-06-22T14:04:52;28.80;99.90
11035;DHT22;5571;48.110;-1.706;2023-06-22T14:07:17;29.10;99.90
11035;DHT22;5571;48.110;-1.706;2023-06-22T14:09:44;29.30;99.90
11035;DHT22;5571;48.110;-1.706;2023-06-22T14:12:11;29.40;99.90
11035;DHT22;5571;48.110;-1.706;2023-06-22T14:14:36;29.30;99.90
11035;DHT22;5571;48.110;-1.706;2023-06-22T14:17:03;29.50;99.90
11035;DHT22;5571;48.110;-1.706;2023-06-22T14:19:29;29.60;99.90
11035;DHT22;5571;48.110;-1.706;2023-06-22T14:21:55;29.80;99.90
11035;DHT22;5571;48.110;-1.706;2023-06-22T14:24:22;29.70;99.90
11035;DHT22;5571;48.110;-1.706;2023-06-22T14:26:48;29.60;99.90
11035;DHT22;5571;48.110;-1.706;2023-06-22T14:29:13;29.70;99.90
11035;DHT22;5571;48.110;-1.706;2023-06-22T14:31:39;29.60;99.90
11035;DHT22;5571;48.110;-1.706;2023-06-22T14:34:04;29.70;99.90
11035;DHT22;5571;48.110;-1.706;2023-06-22T14:36:31;29.50;99.90
11035;DHT22;5571;48.110;-1.706;2023-06-22T14:38:57;29.30;99.90
11035;DHT22;5571;48.110;-1.706;2023-06-22T14:41:22;29.40;99.90
11035;DHT22;5571;48.110;-1.706;2023-06-22T14:43:49;29.30;99.90
11035;DHT22;5571;48.110;-1.706;2023-06-22T14:46:17;29.50;99.90
11035;DHT22;5571;48.110;-1.706;2023-06-22T14:48:43;29.50;99.90
11035;DHT22;5571;48.110;-1.706;2023-06-22T14:51:09;29.50;99.90
11035;DHT22;5571;48.110;-1.706;2023-06-22T14:53:36;29.70;99.80
11035;DHT22;5571;48.110;-1.706;2023-06-22T14:56:02;29.50;99.70
11035;DHT22;5571;48.110;-1.706;2023-06-22T14:58:29;29.60;99.60
11035;DHT22;5571;48.110;-1.706;2023-06-22T15:01:01;29.50;99.10
11035;DHT22;5571;48.110;-1.706;2023-06-22T15:03:27;29.40;99.50
11035;DHT22;5571;48.110;-1.706;2023-06-22T15:05:56;29.40;99.50
11035;DHT22;5571;48.110;-1.706;2023-06-22T15:08:22;28.80;99.70
11035;DHT22;5571;48.110;-1.706;2023-06-22T15:10:47;29.00;99.90
11035;DHT22;5571;48.110;-1.706;2023-06-22T15:13:13;29.20;99.90
11035;DHT22;5571;48.110;-1.706;2023-06-22T15:15:39;29.40;99.70
11035;DHT22;5571;48.110;-1.706;2023-06-22T15:18:05;29.60;99.50
11035;DHT22;5571;48.110;-1.706;2023-06-22T15:20:30;29.40;98.90
11035;DHT22;5571;48.110;-1.706;2023-06-22T15:22:57;29.00;99.10
11035;DHT22;5571;48.110;-1.706;2023-06-22T15:25:23;28.70;99.20
11035;DHT22;5571;48.110;-1.706;2023-06-22T15:27:48;28.40;99.60
11035;DHT22;5571;48.110;-1.706;2023-06-22T15:30:14;28.30;99.60
11035;DHT22;5571;48.110;-1.706;2023-06-22T15:32:43;28.40;99.90
11035;DHT22;5571;48.110;-1.706;2023-06-22T15:35:10;28.60;99.90